sensor_id;sensor_type;location;lat;lon;timestamp;P1;durP1;ratioP1;P2;durP2;ratioP2
13279;SDS011;6708;49.814;8.652;2023-04-24T00:02:22;1.13;;;0.70;;
13279;SDS011;6708;49.814;8.652;2023-04-24T00:04:51;1.73;;;0.33;;
13279;SDS011;6708;49.814;8.652;2023-04-24T00:07:22;0.40;;;0.40;;
13279;SDS011;6708;49.814;8.652;2023-04-24T00:09:50;0.50;;;0.50;;
13279;SDS011;6708;49.814;8.652;2023-04-24T00:12:19;1.80;;;0.47;;
13279;SDS011;6708;49.814;8.652;2023-04-24T00:14:47;0.87;;;0.87;;
13279;SDS011;6708;49.814;8.652;2023-04-24T00:17:16;0.77;;;0.77;;
13279;SDS011;6708;49.814;8.652;2023-04-24T00:19:45;0.60;;;0.60;;
13279;SDS011;6708;49.814;8.652;2023-04-24T00:22:15;0.40;;;0.40;;
13279;SDS011;6708;49.814;8.652;2023-04-24T00:24:48;1.40;;;0.50;;
13279;SDS011;6708;49.814;8.652;2023-04-24T00:27:16;0.50;;;0.50;;
13279;SDS011;6708;49.814;8.652;2023-04-24T00:29:45;0.27;;;0.27;;
13279;SDS011;6708;49.814;8.652;2023-04-24T00:32:13;0.50;;;0.40;;
13279;SDS011;6708;49.814;8.652;2023-04-24T00:34:42;0.47;;;0.40;;
13279;SDS011;6708;49.814;8.652;2023-04-24T00:37:11;0.97;;;0.37;;
13279;SDS011;6708;49.814;8.652;2023-04-24T00:39:39;1.83;;;0.77;;
13279;SDS011;6708;49.814;8.652;2023-04-24T00:42:10;0.77;;;0.50;;
13279;SDS011;6708;49.814;8.652;2023-04-24T00:44:39;0.67;;;0.60;;
13279;SDS011;6708;49.814;8.652;2023-04-24T00:47:07;0.23;;;0.23;;
13279;SDS011;6708;49.814;8.652;2023-04-24T00:49:35;0.43;;;0.43;;
13279;SDS011;6708;49.814;8.652;2023-04-24T00:52:04;0.63;;;0.40;;
13279;SDS011;6708;49.814;8.652;2023-04-24T00:54:32;0.43;;;0.43;;
13279;SDS011;6708;49.814;8.652;2023-04-24T00:57:01;1.73;;;0.50;;
13279;SDS011;6708;49.814;8.652;2023-04-24T00:59:32;0.60;;;0.60;;
13279;SDS011;6708;49.814;8.652;2023-04-24T01:02:01;0.37;;;0.37;;
13279;SDS011;6708;49.814;8.652;2023-04-24T01:04:30;0.70;;;0.27;;
13279;SDS011;6708;49.814;8.652;2023-04-24T01:06:58;0.27;;;0.27;;
13279;SDS011;6708;49.814;8.652;2023-04-24T01:09:28;0.30;;;0.23;;
13279;SDS011;6708;49.814;8.652;2023-04-24T01:11:56;0.37;;;0.37;;
13279;SDS011;6708;49.814;8.652;2023-04-24T01:14:26;0.40;;;0.40;;
13279;SDS011;6708;49.814;8.652;2023-04-24T01:16:57;0.53;;;0.47;;
13279;SDS011;6708;49.814;8.652;2023-04-24T01:19:26;0.40;;;0.40;;
13279;SDS011;6708;49.814;8.652;2023-04-24T01:21:57;0.60;;;0.50;;
13279;SDS011;6708;49.814;8.652;2023-04-24T01:24:29;1.00;;;0.53;;
13279;SDS011;6708;49.814;8.652;2023-04-24T01:26:58;0.50;;;0.50;;
13279;SDS011;6708;49.814;8.652;2023-04-24T01:29:26;0.50;;;0.50;;
13279;SDS011;6708;49.814;8.652;2023-04-24T01:31:55;0.93;;;0.40;;
13279;SDS011;6708;49.814;8.652;2023-04-24T01:34:23;1.43;;;0.73;;
13279;SDS011;6708;49.814;8.652;2023-04-24T01:36:52;1.03;;;0.33;;
13279;SDS011;6708;49.814;8.652;2023-04-24T01:39:21;0.40;;;0.40;;
13279;SDS011;6708;49.814;8.652;2023-04-24T01:41:55;0.43;;;0.43;;
13279;SDS011;6708;49.814;8.652;2023-04-24T01:44:24;1.43;;;0.60;;
13279;SDS011;6708;49.814;8.652;2023-04-24T01:46:52;1.57;;;0.67;;
13279;SDS011;6708;49.814;8.652;2023-04-24T01:49:22;1.40;;;0.70;;
13279;SDS011;6708;49.814;8.652;2023-04-24T01:51:51;0.40;;;0.40;;
13279;SDS011;6708;49.814;8.652;2023-04-24T01:54:19;0.90;;;0.63;;
13279;SDS011;6708;49.814;8.652;2023-04-24T01:56:47;4.30;;;0.63;;
13279;SDS011;6708;49.814;8.652;2023-04-24T01:59:19;0.77;;;0.30;;
13279;SDS011;6708;49.814;8.652;2023-04-24T02:01:48;0.40;;;0.40;;
13279;SDS011;6708;49.814;8.652;2023-04-24T02:04:18;0.77;;;0.63;;
13279;SDS011;6708;49.814;8.652;2023-04-24T02:06:46;1.27;;;0.57;;
13279;SDS011;6708;49.814;8.652;2023-04-24T02:09:14;0.83;;;0.83;;
13279;SDS011;6708;49.814;8.652;2023-04-24T02:11:43;0.43;;;0.33;;
13279;SDS011;6708;49.814;8.652;2023-04-24T02:14:11;0.60;;;0.50;;
13279;SDS011;6708;49.814;8.652;2023-04-24T02:16:42;0.83;;;0.60;;
13279;SDS011;6708;49.814;8.652;2023-04-24T02:19:11;0.30;;;0.30;;
13279;SDS011;6708;49.814;8.652;2023-04-24T02:21:40;2.53;;;0.70;;
13279;SDS011;6708;49.814;8.652;2023-04-24T02:24:09;0.60;;;0.60;;
13279;SDS011;6708;49.814;8.652;2023-04-24T02:26:37;0.60;;;0.60;;
13279;SDS011;6708;49.814;8.652;2023-04-24T02:29:06;1.80;;;0.50;;
13279;SDS011;6708;49.814;8.652;2023-04-24T02:31:34;0.70;;;0.50;;
13279;SDS011;6708;49.814;8.652;2023-04-24T02:34:05;0.90;;;0.67;;
13279;SDS011;6708;49.814;8.652;2023-04-24T02:36:33;0.70;;;0.70;;
13279;SDS011;6708;49.814;8.652;2023-04-24T02:39:02;1.43;;;0.53;;
13279;SDS011;6708;49.814;8.652;2023-04-24T02:41:31;0.60;;;0.60;;
13279;SDS011;6708;49.814;8.652;2023-04-24T02:44:00;0.63;;;0.63;;
13279;SDS011;6708;49.814;8.652;2023-04-24T02:46:28;1.97;;;0.67;;
13279;SDS011;6708;49.814;8.652;2023-04-24T02:48:56;0.53;;;0.50;;
13279;SDS011;6708;49.814;8.652;2023-04-24T02:51:27;0.60;;;0.60;;
13279;SDS011;6708;49.814;8.652;2023-04-24T02:53:56;0.77;;;0.77;;
13279;SDS011;6708;49.814;8.652;2023-04-24T02:56:25;1.33;;;0.77;;
13279;SDS011;6708;49.814;8.652;2023-04-24T02:58:54;0.63;;;0.63;;
13279;SDS011;6708;49.814;8.652;2023-04-24T03:01:23;0.30;;;0.30;;
13279;SDS011;6708;49.814;8.652;2023-04-24T03:03:51;2.40;;;0.90;;
13279;SDS011;6708;49.814;8.652;2023-04-24T03:06:20;2.27;;;0.67;;
13279;SDS011;6708;49.814;8.652;2023-04-24T03:08:51;0.60;;;0.60;;
13279;SDS011;6708;49.814;8.652;2023-04-24T03:11:20;0.60;;;0.50;;
13279;SDS011;6708;49.814;8.652;2023-04-24T03:13:48;2.00;;;0.53;;
13279;SDS011;6708;49.814;8.652;2023-04-24T03:16:16;0.77;;;0.70;;
13279;SDS011;6708;49.814;8.652;2023-04-24T03:18:45;0.80;;;0.77;;
13279;SDS011;6708;49.814;8.652;2023-04-24T03:21:14;0.80;;;0.70;;
13279;SDS011;6708;49.814;8.652;2023-04-24T03:23:43;0.60;;;0.60;;
13279;SDS011;6708;49.814;8.652;2023-04-24T03:26:14;2.00;;;0.60;;
13279;SDS011;6708;49.814;8.652;2023-04-24T03:28:54;0.70;;;0.70;;
13279;SDS011;6708;49.814;8.652;2023-04-24T03:31:23;0.43;;;0.43;;
13279;SDS011;6708;49.814;8.652;2023-04-24T03:33:51;0.50;;;0.50;;
13279;SDS011;6708;49.814;8.652;2023-04-24T03:36:20;0.40;;;0.40;;
13279;SDS011;6708;49.814;8.652;2023-04-24T03:38:49;0.40;;;0.40;;
13279;SDS011;6708;49.814;8.652;2023-04-24T03:41:24;1.43;;;0.80;;
13279;SDS011;6708;49.814;8.652;2023-04-24T03:44:12;2.10;;;0.63;;
13279;SDS011;6708;49.814;8.652;2023-04-24T03:46:40;1.10;;;0.90;;
13279;SDS011;6708;49.814;8.652;2023-04-24T03:49:09;1.70;;;0.50;;
13279;SDS011;6708;49.814;8.652;2023-04-24T03:51:41;0.50;;;0.50;;
13279;SDS011;6708;49.814;8.652;2023-04-24T03:54:22;0.70;;;0.70;;
13279;SDS011;6708;49.814;8.652;2023-04-24T03:56:54;0.50;;;0.50;;
13279;SDS011;6708;49.814;8.652;2023-04-24T03:59:25;0.70;;;0.70;;
13279;SDS011;6708;49.814;8.652;2023-04-24T04:02:06;0.73;;;0.73;;
13279;SDS011;6708;49.814;8.652;2023-04-24T04:04:34;0.50;;;0.50;;
13279;SDS011;6708;49.814;8.652;2023-04-24T04:07:03;0.50;;;0.50;;
13279;SDS011;6708;49.814;8.652;2023-04-24T04:09:34;0.87;;;0.87;;
13279;SDS011;6708;49.814;8.652;2023-04-24T04:12:05;1.40;;;0.97;;
13279;SDS011;6708;49.814;8.652;2023-04-24T04:14:34;1.10;;;1.10;;
13279;SDS011;6708;49.814;8.652;2023-04-24T04:17:02;1.03;;;0.87;;
13279;SDS011;6708;49.814;8.652;2023-04-24T04:19:30;0.80;;;0.80;;
13279;SDS011;6708;49.814;8.652;2023-04-24T04:21:59;0.87;;;0.87;;
13279;SDS011;6708;49.814;8.652;2023-04-24T04:24:38;0.97;;;0.97;;
13279;SDS011;6708;49.814;8.652;2023-04-24T04:27:11;0.90;;;0.90;;
13279;SDS011;6708;49.814;8.652;2023-04-24T04:29:48;1.27;;;0.93;;
13279;SDS011;6708;49.814;8.652;2023-04-24T04:32:16;1.20;;;1.10;;
13279;SDS011;6708;49.814;8.652;2023-04-24T04:34:44;1.17;;;1.07;;
13279;SDS011;6708;49.814;8.652;2023-04-24T04:37:15;1.17;;;1.17;;
13279;SDS011;6708;49.814;8.652;2023-04-24T04:40:03;2.10;;;1.20;;
13279;SDS011;6708;49.814;8.652;2023-04-24T04:42:42;1.80;;;1.30;;
13279;SDS011;6708;49.814;8.652;2023-04-24T04:45:11;1.13;;;1.13;;
13279;SDS011;6708;49.814;8.652;2023-04-24T04:48:01;1.03;;;1.03;;
13279;SDS011;6708;49.814;8.652;2023-04-24T04:50:30;1.37;;;1.37;;
13279;SDS011;6708;49.814;8.652;2023-04-24T04:53:04;1.47;;;1.20;;
13279;SDS011;6708;49.814;8.652;2023-04-24T04:55:36;1.70;;;1.60;;
13279;SDS011;6708;49.814;8.652;2023-04-24T04:58:16;1.10;;;1.10;;
13279;SDS011;6708;49.814;8.652;2023-04-24T05:00:45;1.30;;;1.30;;
13279;SDS011;6708;49.814;8.652;2023-04-24T05:03:21;1.47;;;1.43;;
13279;SDS011;6708;49.814;8.652;2023-04-24T05:05:58;1.10;;;1.10;;
13279;SDS011;6708;49.814;8.652;2023-04-24T05:08:28;1.30;;;1.30;;
13279;SDS011;6708;49.814;8.652;2023-04-24T05:10:57;1.30;;;1.30;;
13279;SDS011;6708;49.814;8.652;2023-04-24T05:13:30;1.10;;;1.10;;
13279;SDS011;6708;49.814;8.652;2023-04-24T05:16:00;1.33;;;1.30;;
13279;SDS011;6708;49.814;8.652;2023-04-24T05:18:29;1.47;;;1.47;;
13279;SDS011;6708;49.814;8.652;2023-04-24T05:20:58;1.57;;;1.47;;
13279;SDS011;6708;49.814;8.652;2023-04-24T05:23:27;1.50;;;1.40;;
13279;SDS011;6708;49.814;8.652;2023-04-24T05:25:56;1.47;;;1.47;;
13279;SDS011;6708;49.814;8.652;2023-04-24T05:28:24;1.50;;;1.40;;
13279;SDS011;6708;49.814;8.652;2023-04-24T05:31:05;1.27;;;1.27;;
13279;SDS011;6708;49.814;8.652;2023-04-24T05:33:34;1.27;;;1.27;;
13279;SDS011;6708;49.814;8.652;2023-04-24T05:36:03;2.07;;;1.57;;
13279;SDS011;6708;49.814;8.652;2023-04-24T05:38:32;1.57;;;1.47;;
13279;SDS011;6708;49.814;8.652;2023-04-24T05:41:00;1.70;;;1.70;;
13279;SDS011;6708;49.814;8.652;2023-04-24T05:43:28;1.83;;;1.77;;
13279;SDS011;6708;49.814;8.652;2023-04-24T05:45:57;1.50;;;1.50;;
13279;SDS011;6708;49.814;8.652;2023-04-24T05:48:28;1.40;;;1.40;;
13279;SDS011;6708;49.814;8.652;2023-04-24T05:51:00;1.73;;;1.63;;
13279;SDS011;6708;49.814;8.652;2023-04-24T05:53:28;1.73;;;1.47;;
13279;SDS011;6708;49.814;8.652;2023-04-24T05:55:57;2.00;;;1.90;;
13279;SDS011;6708;49.814;8.652;2023-04-24T05:58:26;1.60;;;1.50;;
13279;SDS011;6708;49.814;8.652;2023-04-24T06:00:55;1.90;;;1.77;;
13279;SDS011;6708;49.814;8.652;2023-04-24T06:03:24;1.70;;;1.70;;
13279;SDS011;6708;49.814;8.652;2023-04-24T06:05:55;1.30;;;1.30;;
13279;SDS011;6708;49.814;8.652;2023-04-24T06:08:24;1.57;;;1.50;;
13279;SDS011;6708;49.814;8.652;2023-04-24T06:10:52;1.73;;;1.63;;
13279;SDS011;6708;49.814;8.652;2023-04-24T06:13:21;1.87;;;1.80;;
13279;SDS011;6708;49.814;8.652;2023-04-24T06:16:15;1.80;;;1.80;;
13279;SDS011;6708;49.814;8.652;2023-04-24T06:18:50;1.60;;;1.60;;
13279;SDS011;6708;49.814;8.652;2023-04-24T06:21:21;1.83;;;1.73;;
13279;SDS011;6708;49.814;8.652;2023-04-24T06:23:50;2.30;;;2.10;;
13279;SDS011;6708;49.814;8.652;2023-04-24T06:26:19;2.07;;;1.90;;
13279;SDS011;6708;49.814;8.652;2023-04-24T06:28:47;1.77;;;1.77;;
13279;SDS011;6708;49.814;8.652;2023-04-24T06:31:18;1.87;;;1.87;;
13279;SDS011;6708;49.814;8.652;2023-04-24T06:33:46;3.57;;;2.20;;
13279;SDS011;6708;49.814;8.652;2023-04-24T06:36:15;2.27;;;2.17;;
13279;SDS011;6708;49.814;8.652;2023-04-24T06:38:47;3.27;;;2.30;;
13279;SDS011;6708;49.814;8.652;2023-04-24T06:41:15;2.50;;;2.40;;
13279;SDS011;6708;49.814;8.652;2023-04-24T06:43:43;3.17;;;2.87;;
13279;SDS011;6708;49.814;8.652;2023-04-24T06:46:13;2.63;;;2.50;;
13279;SDS011;6708;49.814;8.652;2023-04-24T06:48:41;2.57;;;2.37;;
13279;SDS011;6708;49.814;8.652;2023-04-24T06:51:09;2.50;;;2.40;;
13279;SDS011;6708;49.814;8.652;2023-04-24T06:53:38;2.60;;;2.50;;
13279;SDS011;6708;49.814;8.652;2023-04-24T06:56:09;2.80;;;2.60;;
13279;SDS011;6708;49.814;8.652;2023-04-24T06:58:37;2.80;;;2.63;;
13279;SDS011;6708;49.814;8.652;2023-04-24T07:01:05;5.57;;;2.50;;
13279;SDS011;6708;49.814;8.652;2023-04-24T07:03:34;2.70;;;2.50;;
13279;SDS011;6708;49.814;8.652;2023-04-24T07:06:03;2.57;;;2.47;;
13279;SDS011;6708;49.814;8.652;2023-04-24T07:08:33;3.20;;;2.67;;
13279;SDS011;6708;49.814;8.652;2023-04-24T07:11:01;2.33;;;2.23;;
13279;SDS011;6708;49.814;8.652;2023-04-24T07:13:33;2.60;;;2.50;;
13279;SDS011;6708;49.814;8.652;2023-04-24T07:16:06;3.20;;;2.40;;
13279;SDS011;6708;49.814;8.652;2023-04-24T07:18:35;2.73;;;2.63;;
13279;SDS011;6708;49.814;8.652;2023-04-24T07:21:04;3.23;;;2.93;;
13279;SDS011;6708;49.814;8.652;2023-04-24T07:23:33;2.83;;;2.73;;
13279;SDS011;6708;49.814;8.652;2023-04-24T07:26:01;3.37;;;3.07;;
13279;SDS011;6708;49.814;8.652;2023-04-24T07:28:32;2.60;;;2.50;;
13279;SDS011;6708;49.814;8.652;2023-04-24T07:31:01;2.67;;;2.57;;
13279;SDS011;6708;49.814;8.652;2023-04-24T07:33:29;3.00;;;2.20;;
13279;SDS011;6708;49.814;8.652;2023-04-24T07:35:58;2.40;;;2.30;;
13279;SDS011;6708;49.814;8.652;2023-04-24T07:38:26;2.50;;;2.30;;
13279;SDS011;6708;49.814;8.652;2023-04-24T07:40:57;2.17;;;2.07;;
13279;SDS011;6708;49.814;8.652;2023-04-24T07:43:25;2.10;;;2.00;;
13279;SDS011;6708;49.814;8.652;2023-04-24T07:45:56;2.53;;;2.43;;
13279;SDS011;6708;49.814;8.652;2023-04-24T07:48:24;2.97;;;2.10;;
13279;SDS011;6708;49.814;8.652;2023-04-24T07:50:53;2.70;;;1.87;;
13279;SDS011;6708;49.814;8.652;2023-04-24T07:53:21;2.57;;;2.13;;
13279;SDS011;6708;49.814;8.652;2023-04-24T07:55:50;2.47;;;2.00;;
13279;SDS011;6708;49.814;8.652;2023-04-24T07:58:18;1.87;;;1.77;;
13279;SDS011;6708;49.814;8.652;2023-04-24T08:00:46;2.37;;;2.17;;
13279;SDS011;6708;49.814;8.652;2023-04-24T08:03:18;2.17;;;2.07;;
13279;SDS011;6708;49.814;8.652;2023-04-24T08:05:46;2.07;;;1.97;;
13279;SDS011;6708;49.814;8.652;2023-04-24T08:08:16;1.73;;;1.63;;
13279;SDS011;6708;49.814;8.652;2023-04-24T08:10:44;1.60;;;1.50;;
13279;SDS011;6708;49.814;8.652;2023-04-24T08:13:12;1.50;;;1.40;;
13279;SDS011;6708;49.814;8.652;2023-04-24T08:15:41;1.20;;;1.20;;
13279;SDS011;6708;49.814;8.652;2023-04-24T08:18:09;1.40;;;1.30;;
13279;SDS011;6708;49.814;8.652;2023-04-24T08:20:41;1.20;;;1.10;;
13279;SDS011;6708;49.814;8.652;2023-04-24T08:23:10;1.90;;;1.17;;
13279;SDS011;6708;49.814;8.652;2023-04-24T08:25:38;1.40;;;1.30;;
13279;SDS011;6708;49.814;8.652;2023-04-24T08:28:08;1.40;;;1.30;;
13279;SDS011;6708;49.814;8.652;2023-04-24T08:30:36;1.37;;;1.30;;
13279;SDS011;6708;49.814;8.652;2023-04-24T08:33:05;1.80;;;1.70;;
13279;SDS011;6708;49.814;8.652;2023-04-24T08:35:34;1.50;;;1.50;;
13279;SDS011;6708;49.814;8.652;2023-04-24T08:38:05;3.33;;;1.13;;
13279;SDS011;6708;49.814;8.652;2023-04-24T08:40:34;3.20;;;2.00;;
13279;SDS011;6708;49.814;8.652;2023-04-24T08:43:02;1.77;;;1.67;;
13279;SDS011;6708;49.814;8.652;2023-04-24T08:45:31;1.60;;;1.60;;
13279;SDS011;6708;49.814;8.652;2023-04-24T08:48:00;3.03;;;1.73;;
13279;SDS011;6708;49.814;8.652;2023-04-24T08:50:30;1.90;;;1.80;;
13279;SDS011;6708;49.814;8.652;2023-04-24T08:53:00;1.90;;;1.80;;
13279;SDS011;6708;49.814;8.652;2023-04-24T08:55:31;2.07;;;1.97;;
13279;SDS011;6708;49.814;8.652;2023-04-24T08:58:01;2.93;;;1.97;;
13279;SDS011;6708;49.814;8.652;2023-04-24T09:00:30;1.70;;;1.60;;
13279;SDS011;6708;49.814;8.652;2023-04-24T09:03:00;2.00;;;1.90;;
13279;SDS011;6708;49.814;8.652;2023-04-24T09:05:28;3.20;;;1.63;;
13279;SDS011;6708;49.814;8.652;2023-04-24T09:07:57;1.47;;;1.47;;
13279;SDS011;6708;49.814;8.652;2023-04-24T09:10:27;2.00;;;1.90;;
13279;SDS011;6708;49.814;8.652;2023-04-24T09:12:58;1.70;;;1.70;;
13279;SDS011;6708;49.814;8.652;2023-04-24T09:15:29;1.67;;;1.60;;
13279;SDS011;6708;49.814;8.652;2023-04-24T09:17:57;2.00;;;1.90;;
13279;SDS011;6708;49.814;8.652;2023-04-24T09:20:26;1.70;;;1.60;;
13279;SDS011;6708;49.814;8.652;2023-04-24T09:22:54;1.77;;;1.67;;
13279;SDS011;6708;49.814;8.652;2023-04-24T09:25:25;2.00;;;1.90;;
13279;SDS011;6708;49.814;8.652;2023-04-24T09:28:03;1.80;;;1.70;;
13279;SDS011;6708;49.814;8.652;2023-04-24T09:30:32;3.50;;;2.07;;
13279;SDS011;6708;49.814;8.652;2023-04-24T09:33:10;1.67;;;1.57;;
13279;SDS011;6708;49.814;8.652;2023-04-24T09:35:40;1.90;;;1.90;;
13279;SDS011;6708;49.814;8.652;2023-04-24T09:38:09;2.40;;;2.00;;
13279;SDS011;6708;49.814;8.652;2023-04-24T09:40:38;2.30;;;2.20;;
13279;SDS011;6708;49.814;8.652;2023-04-24T09:43:12;3.17;;;2.17;;
13279;SDS011;6708;49.814;8.652;2023-04-24T09:45:40;1.83;;;1.73;;
13279;SDS011;6708;49.814;8.652;2023-04-24T09:48:09;1.90;;;1.73;;
13279;SDS011;6708;49.814;8.652;2023-04-24T09:50:37;2.20;;;2.10;;
13279;SDS011;6708;49.814;8.652;2023-04-24T09:53:06;2.20;;;2.10;;
13279;SDS011;6708;49.814;8.652;2023-04-24T09:55:38;2.00;;;1.90;;
13279;SDS011;6708;49.814;8.652;2023-04-24T09:58:07;2.13;;;2.03;;
13279;SDS011;6708;49.814;8.652;2023-04-24T10:00:39;2.73;;;2.50;;
13279;SDS011;6708;49.814;8.652;2023-04-24T10:03:07;2.33;;;2.23;;
13279;SDS011;6708;49.814;8.652;2023-04-24T10:05:36;2.50;;;2.30;;
13279;SDS011;6708;49.814;8.652;2023-04-24T10:08:06;2.53;;;2.40;;
13279;SDS011;6708;49.814;8.652;2023-04-24T10:10:38;4.23;;;2.20;;
13279;SDS011;6708;49.814;8.652;2023-04-24T10:13:08;1.97;;;1.90;;
13279;SDS011;6708;49.814;8.652;2023-04-24T10:15:40;2.07;;;1.97;;
13279;SDS011;6708;49.814;8.652;2023-04-24T10:18:09;2.30;;;2.10;;
13279;SDS011;6708;49.814;8.652;2023-04-24T10:20:38;1.53;;;1.53;;
13279;SDS011;6708;49.814;8.652;2023-04-24T10:23:08;1.80;;;1.70;;
13279;SDS011;6708;49.814;8.652;2023-04-24T10:25:36;1.20;;;1.10;;
13279;SDS011;6708;49.814;8.652;2023-04-24T10:28:04;1.70;;;1.60;;
13279;SDS011;6708;49.814;8.652;2023-04-24T10:30:33;1.60;;;1.50;;
13279;SDS011;6708;49.814;8.652;2023-04-24T10:33:06;5.10;;;1.43;;
13279;SDS011;6708;49.814;8.652;2023-04-24T10:35:38;1.70;;;1.60;;
13279;SDS011;6708;49.814;8.652;2023-04-24T10:38:09;2.57;;;1.80;;
13279;SDS011;6708;49.814;8.652;2023-04-24T10:40:40;2.53;;;1.60;;
13279;SDS011;6708;49.814;8.652;2023-04-24T10:43:10;1.67;;;1.60;;
13279;SDS011;6708;49.814;8.652;2023-04-24T10:45:38;1.87;;;1.77;;
13279;SDS011;6708;49.814;8.652;2023-04-24T10:48:09;2.00;;;1.90;;
13279;SDS011;6708;49.814;8.652;2023-04-24T10:50:42;3.20;;;2.07;;
13279;SDS011;6708;49.814;8.652;2023-04-24T10:53:14;1.80;;;1.70;;
13279;SDS011;6708;49.814;8.652;2023-04-24T10:55:44;2.87;;;1.73;;
13279;SDS011;6708;49.814;8.652;2023-04-24T10:58:15;2.07;;;1.93;;
13279;SDS011;6708;49.814;8.652;2023-04-24T11:00:54;1.80;;;1.80;;
13279;SDS011;6708;49.814;8.652;2023-04-24T11:03:27;1.80;;;1.70;;
13279;SDS011;6708;49.814;8.652;2023-04-24T11:05:57;2.10;;;1.63;;
13279;SDS011;6708;49.814;8.652;2023-04-24T11:08:28;1.83;;;1.73;;
13279;SDS011;6708;49.814;8.652;2023-04-24T11:10:59;2.03;;;1.93;;
13279;SDS011;6708;49.814;8.652;2023-04-24T11:16:30;1.67;;;1.50;;
13279;SDS011;6708;49.814;8.652;2023-04-24T11:19:03;1.60;;;1.50;;
13279;SDS011;6708;49.814;8.652;2023-04-24T11:21:40;1.53;;;1.50;;
13279;SDS011;6708;49.814;8.652;2023-04-24T11:24:22;1.70;;;1.60;;
13279;SDS011;6708;49.814;8.652;2023-04-24T11:26:56;2.00;;;1.90;;
13279;SDS011;6708;49.814;8.652;2023-04-24T11:29:39;3.57;;;2.23;;
13279;SDS011;6708;49.814;8.652;2023-04-24T11:32:15;2.00;;;1.90;;
13279;SDS011;6708;49.814;8.652;2023-04-24T11:34:56;2.13;;;2.03;;
13279;SDS011;6708;49.814;8.652;2023-04-24T11:37:26;2.10;;;2.00;;
13279;SDS011;6708;49.814;8.652;2023-04-24T11:39:56;2.23;;;2.13;;
13279;SDS011;6708;49.814;8.652;2023-04-24T11:42:25;1.83;;;1.83;;
13279;SDS011;6708;49.814;8.652;2023-04-24T11:44:54;2.33;;;1.80;;
13279;SDS011;6708;49.814;8.652;2023-04-24T11:47:28;2.07;;;1.97;;
13279;SDS011;6708;49.814;8.652;2023-04-24T11:50:02;1.90;;;1.80;;
13279;SDS011;6708;49.814;8.652;2023-04-24T11:52:31;2.20;;;2.10;;
13279;SDS011;6708;49.814;8.652;2023-04-24T11:55:01;2.97;;;2.13;;
13279;SDS011;6708;49.814;8.652;2023-04-24T11:57:29;2.10;;;2.00;;
13279;SDS011;6708;49.814;8.652;2023-04-24T12:00:02;2.17;;;2.07;;
13279;SDS011;6708;49.814;8.652;2023-04-24T12:02:37;2.37;;;2.27;;
13279;SDS011;6708;49.814;8.652;2023-04-24T12:05:08;2.27;;;2.07;;
13279;SDS011;6708;49.814;8.652;2023-04-24T12:07:39;2.63;;;2.27;;
13279;SDS011;6708;49.814;8.652;2023-04-24T12:10:09;5.53;;;2.57;;
13279;SDS011;6708;49.814;8.652;2023-04-24T12:12:37;2.50;;;1.83;;
13279;SDS011;6708;49.814;8.652;2023-04-24T12:15:06;3.37;;;1.93;;
13279;SDS011;6708;49.814;8.652;2023-04-24T12:17:40;1.33;;;1.10;;
13279;SDS011;6708;49.814;8.652;2023-04-24T12:20:12;1.50;;;1.50;;
13279;SDS011;6708;49.814;8.652;2023-04-24T12:22:44;1.67;;;1.57;;
13279;SDS011;6708;49.814;8.652;2023-04-24T12:25:13;1.50;;;1.40;;
13279;SDS011;6708;49.814;8.652;2023-04-24T12:27:43;2.17;;;2.00;;
13279;SDS011;6708;49.814;8.652;2023-04-24T12:30:13;1.23;;;1.23;;
13279;SDS011;6708;49.814;8.652;2023-04-24T12:32:42;2.43;;;2.07;;
13279;SDS011;6708;49.814;8.652;2023-04-24T12:35:14;2.30;;;2.10;;
13279;SDS011;6708;49.814;8.652;2023-04-24T12:37:47;2.50;;;2.40;;
13279;SDS011;6708;49.814;8.652;2023-04-24T12:40:16;3.53;;;3.10;;
13279;SDS011;6708;49.814;8.652;2023-04-24T12:42:46;2.70;;;2.57;;
13279;SDS011;6708;49.814;8.652;2023-04-24T12:45:15;2.27;;;2.17;;
13279;SDS011;6708;49.814;8.652;2023-04-24T12:47:45;2.67;;;2.57;;
13279;SDS011;6708;49.814;8.652;2023-04-24T12:50:16;2.30;;;2.20;;
13279;SDS011;6708;49.814;8.652;2023-04-24T12:52:45;4.90;;;2.50;;
13279;SDS011;6708;49.814;8.652;2023-04-24T12:55:13;2.80;;;2.60;;
13279;SDS011;6708;49.814;8.652;2023-04-24T12:57:42;2.53;;;2.33;;
13279;SDS011;6708;49.814;8.652;2023-04-24T13:00:10;2.53;;;2.33;;
13279;SDS011;6708;49.814;8.652;2023-04-24T13:02:39;2.63;;;2.50;;
13279;SDS011;6708;49.814;8.652;2023-04-24T13:05:08;2.80;;;2.47;;
13279;SDS011;6708;49.814;8.652;2023-04-24T13:07:41;3.97;;;2.33;;
13279;SDS011;6708;49.814;8.652;2023-04-24T13:10:09;2.70;;;2.60;;
13279;SDS011;6708;49.814;8.652;2023-04-24T13:12:38;2.57;;;2.40;;
13279;SDS011;6708;49.814;8.652;2023-04-24T13:15:10;2.80;;;2.43;;
13279;SDS011;6708;49.814;8.652;2023-04-24T13:17:38;2.60;;;2.40;;
13279;SDS011;6708;49.814;8.652;2023-04-24T13:20:07;2.53;;;2.40;;
13279;SDS011;6708;49.814;8.652;2023-04-24T13:22:35;2.73;;;2.50;;
13279;SDS011;6708;49.814;8.652;2023-04-24T13:25:07;2.63;;;2.20;;
13279;SDS011;6708;49.814;8.652;2023-04-24T13:27:37;2.03;;;1.93;;
13279;SDS011;6708;49.814;8.652;2023-04-24T13:30:06;5.60;;;2.53;;
13279;SDS011;6708;49.814;8.652;2023-04-24T13:32:36;2.30;;;2.10;;
13279;SDS011;6708;49.814;8.652;2023-04-24T13:35:04;2.40;;;2.30;;
13279;SDS011;6708;49.814;8.652;2023-04-24T13:37:33;2.23;;;1.90;;
13279;SDS011;6708;49.814;8.652;2023-04-24T13:40:02;1.67;;;1.57;;
13279;SDS011;6708;49.814;8.652;2023-04-24T13:42:33;3.47;;;1.80;;
13279;SDS011;6708;49.814;8.652;2023-04-24T13:45:02;2.17;;;1.97;;
13279;SDS011;6708;49.814;8.652;2023-04-24T13:47:33;2.43;;;2.33;;
13279;SDS011;6708;49.814;8.652;2023-04-24T13:50:01;2.60;;;2.40;;
13279;SDS011;6708;49.814;8.652;2023-04-24T13:52:29;2.53;;;1.90;;
13279;SDS011;6708;49.814;8.652;2023-04-24T13:54:58;2.30;;;2.10;;
13279;SDS011;6708;49.814;8.652;2023-04-24T13:57:26;2.30;;;2.10;;
13279;SDS011;6708;49.814;8.652;2023-04-24T13:59:58;2.60;;;2.20;;
13279;SDS011;6708;49.814;8.652;2023-04-24T14:02:32;2.40;;;2.30;;
13279;SDS011;6708;49.814;8.652;2023-04-24T14:05:00;2.57;;;2.47;;
13279;SDS011;6708;49.814;8.652;2023-04-24T14:07:29;2.83;;;2.63;;
13279;SDS011;6708;49.814;8.652;2023-04-24T14:09:58;2.40;;;2.30;;
13279;SDS011;6708;49.814;8.652;2023-04-24T14:12:26;4.20;;;2.10;;
13279;SDS011;6708;49.814;8.652;2023-04-24T14:14:55;2.67;;;2.43;;
13279;SDS011;6708;49.814;8.652;2023-04-24T14:17:26;2.53;;;2.33;;
13279;SDS011;6708;49.814;8.652;2023-04-24T14:19:54;3.23;;;2.40;;
13279;SDS011;6708;49.814;8.652;2023-04-24T14:22:25;2.70;;;2.40;;
13279;SDS011;6708;49.814;8.652;2023-04-24T14:24:53;2.33;;;2.13;;
13279;SDS011;6708;49.814;8.652;2023-04-24T14:27:21;2.53;;;2.37;;
13279;SDS011;6708;49.814;8.652;2023-04-24T14:29:50;3.93;;;2.27;;
13279;SDS011;6708;49.814;8.652;2023-04-24T14:32:18;2.40;;;2.20;;
13279;SDS011;6708;49.814;8.652;2023-04-24T14:34:49;5.93;;;2.40;;
13279;SDS011;6708;49.814;8.652;2023-04-24T14:37:18;2.53;;;2.40;;
13279;SDS011;6708;49.814;8.652;2023-04-24T14:39:46;2.40;;;2.20;;
13279;SDS011;6708;49.814;8.652;2023-04-24T14:42:15;2.77;;;2.13;;
13279;SDS011;6708;49.814;8.652;2023-04-24T14:44:45;6.47;;;1.97;;
13279;SDS011;6708;49.814;8.652;2023-04-24T14:47:14;1.80;;;1.70;;
13279;SDS011;6708;49.814;8.652;2023-04-24T14:49:45;2.20;;;2.10;;
13279;SDS011;6708;49.814;8.652;2023-04-24T14:52:15;2.00;;;1.90;;
13279;SDS011;6708;49.814;8.652;2023-04-24T14:54:44;2.37;;;2.27;;
13279;SDS011;6708;49.814;8.652;2023-04-24T14:57:12;2.37;;;2.27;;
13279;SDS011;6708;49.814;8.652;2023-04-24T14:59:41;2.50;;;2.40;;
13279;SDS011;6708;49.814;8.652;2023-04-24T15:02:09;2.10;;;1.90;;
13279;SDS011;6708;49.814;8.652;2023-04-24T15:04:37;2.53;;;2.40;;
13279;SDS011;6708;49.814;8.652;2023-04-24T15:07:06;2.67;;;2.57;;
13279;SDS011;6708;49.814;8.652;2023-04-24T15:09:37;3.63;;;2.60;;
13279;SDS011;6708;49.814;8.652;2023-04-24T15:12:05;3.13;;;2.67;;
13279;SDS011;6708;49.814;8.652;2023-04-24T15:14:35;2.57;;;2.37;;
13279;SDS011;6708;49.814;8.652;2023-04-24T15:17:03;2.27;;;2.07;;
13279;SDS011;6708;49.814;8.652;2023-04-24T15:19:31;2.50;;;2.30;;
13279;SDS011;6708;49.814;8.652;2023-04-24T15:22:00;2.97;;;2.60;;